sensor_id;sensor_type;location;lat;lon;timestamp;temperature;humidity
12307;DHT22;6216;51.146;7.008;2022-12-07T00:01:32;19.90;99.90
12307;DHT22;6216;51.146;7.008;2022-12-07T00:04:04;19.90;99.90
12307;DHT22;6216;51.146;7.008;2022-12-07T00:06:36;19.90;99.90
12307;DHT22;6216;51.146;7.008;2022-12-07T00:09:05;19.90;99.90
12307;DHT22;6216;51.146;7.008;2022-12-07T00:11:33;19.80;99.90
12307;DHT22;6216;51.146;7.008;2022-12-07T00:14:05;19.80;99.90
12307;DHT22;6216;51.146;7.008;2022-12-07T00:16:34;19.80;99.90
12307;DHT22;6216;51.146;7.008;2022-12-07T00:19:15;19.80;99.90
12307;DHT22;6216;51.146;7.008;2022-12-07T00:21:43;19.80;99.90
12307;DHT22;6216;51.146;7.008;2022-12-07T00:24:11;19.80;99.90
12307;DHT22;6216;51.146;7.008;2022-12-07T00:26:41;19.80;99.90
12307;DHT22;6216;51.146;7.008;2022-12-07T00:29:13;19.80;99.90
12307;DHT22;6216;51.146;7.008;2022-12-07T00:31:42;19.80;99.90
12307;DHT22;6216;51.146;7.008;2022-12-07T00:34:12;19.80;99.90
12307;DHT22;6216;51.146;7.008;2022-12-07T00:36:42;19.70;99.90
12307;DHT22;6216;51.146;7.008;2022-12-07T00:39:10;19.70;99.90
12307;DHT22;6216;51.146;7.008;2022-12-07T00:41:38;19.70;99.90
12307;DHT22;6216;51.146;7.008;2022-12-07T00:44:06;19.70;99.90
12307;DHT22;6216;51.146;7.008;2022-12-07T00:46:34;19.70;99.90
12307;DHT22;6216;51.146;7.008;2022-12-07T00:49:02;19.70;99.90
12307;DHT22;6216;51.146;7.008;2022-12-07T00:51:30;19.80;99.90
12307;DHT22;6216;51.146;7.008;2022-12-07T00:53:59;19.70;99.90
12307;DHT22;6216;51.146;7.008;2022-12-07T00:56:28;19.70;99.90
12307;DHT22;6216;51.146;7.008;2022-12-07T00:58:58;19.80;99.90
12307;DHT22;6216;51.146;7.008;2022-12-07T01:01:28;19.80;99.90
12307;DHT22;6216;51.146;7.008;2022-12-07T01:03:57;19.80;99.90
12307;DHT22;6216;51.146;7.008;2022-12-07T01:06:25;19.80;99.90
12307;DHT22;6216;51.146;7.008;2022-12-07T01:08:53;19.80;99.90
12307;DHT22;6216;51.146;7.008;2022-12-07T01:11:24;19.80;99.90
12307;DHT22;6216;51.146;7.008;2022-12-07T01:13:54;19.80;99.90
12307;DHT22;6216;51.146;7.008;2022-12-07T01:16:24;19.80;99.90
12307;DHT22;6216;51.146;7.008;2022-12-07T01:18:53;19.80;99.90
12307;DHT22;6216;51.146;7.008;2022-12-07T01:21:23;19.80;99.90
12307;DHT22;6216;51.146;7.008;2022-12-07T01:23:51;19.80;99.90
12307;DHT22;6216;51.146;7.008;2022-12-07T01:26:21;19.80;99.90
12307;DHT22;6216;51.146;7.008;2022-12-07T01:28:51;19.80;99.90
12307;DHT22;6216;51.146;7.008;2022-12-07T01:31:23;19.80;99.90
12307;DHT22;6216;51.146;7.008;2022-12-07T01:33:54;19.80;99.90
12307;DHT22;6216;51.146;7.008;2022-12-07T01:36:24;19.80;99.90
12307;DHT22;6216;51.146;7.008;2022-12-07T01:38:55;19.80;99.90
12307;DHT22;6216;51.146;7.008;2022-12-07T01:41:25;19.80;99.90
12307;DHT22;6216;51.146;7.008;2022-12-07T01:44:17;19.80;99.90
12307;DHT22;6216;51.146;7.008;2022-12-07T01:46:47;19.80;99.90
12307;DHT22;6216;51.146;7.008;2022-12-07T01:49:20;19.80;99.90
12307;DHT22;6216;51.146;7.008;2022-12-07T01:51:54;19.80;99.90
12307;DHT22;6216;51.146;7.008;2022-12-07T01:54:25;19.80;99.90
12307;DHT22;6216;51.146;7.008;2022-12-07T01:56:55;19.70;99.90
12307;DHT22;6216;51.146;7.008;2022-12-07T01:59:26;19.70;99.90
12307;DHT22;6216;51.146;7.008;2022-12-07T02:01:55;19.70;99.90
12307;DHT22;6216;51.146;7.008;2022-12-07T02:04:23;19.70;99.90
12307;DHT22;6216;51.146;7.008;2022-12-07T02:06:52;19.80;99.90
12307;DHT22;6216;51.146;7.008;2022-12-07T02:09:21;19.70;99.90
12307;DHT22;6216;51.146;7.008;2022-12-07T02:11:49;19.70;99.90
12307;DHT22;6216;51.146;7.008;2022-12-07T02:14:18;19.70;99.90
12307;DHT22;6216;51.146;7.008;2022-12-07T02:16:55;19.70;99.90
12307;DHT22;6216;51.146;7.008;2022-12-07T02:19:50;19.70;99.90
12307;DHT22;6216;51.146;7.008;2022-12-07T02:22:42;19.70;99.90
12307;DHT22;6216;51.146;7.008;2022-12-07T02:25:23;19.70;99.90
12307;DHT22;6216;51.146;7.008;2022-12-07T02:27:57;19.70;99.90
12307;DHT22;6216;51.146;7.008;2022-12-07T02:30:32;19.60;99.90
12307;DHT22;6216;51.146;7.008;2022-12-07T02:33:04;19.70;99.90
12307;DHT22;6216;51.146;7.008;2022-12-07T02:35:38;19.70;99.90
12307;DHT22;6216;51.146;7.008;2022-12-07T02:38:13;19.60;99.90
12307;DHT22;6216;51.146;7.008;2022-12-07T02:40:45;19.60;99.90
12307;DHT22;6216;51.146;7.008;2022-12-07T02:43:18;19.60;99.90
12307;DHT22;6216;51.146;7.008;2022-12-07T02:45:51;19.60;99.90
12307;DHT22;6216;51.146;7.008;2022-12-07T02:48:21;19.60;99.90
12307;DHT22;6216;51.146;7.008;2022-12-07T02:50:50;19.60;99.90
12307;DHT22;6216;51.146;7.008;2022-12-07T02:53:35;19.70;99.90
12307;DHT22;6216;51.146;7.008;2022-12-07T02:56:08;19.70;99.90
12307;DHT22;6216;51.146;7.008;2022-12-07T02:58:50;19.70;99.90
12307;DHT22;6216;51.146;7.008;2022-12-07T03:01:30;19.70;99.90
12307;DHT22;6216;51.146;7.008;2022-12-07T03:04:10;19.70;99.90
12307;DHT22;6216;51.146;7.008;2022-12-07T03:06:48;19.70;99.90
12307;DHT22;6216;51.146;7.008;2022-12-07T03:09:23;19.70;99.90
12307;DHT22;6216;51.146;7.008;2022-12-07T03:11:56;19.70;99.90
12307;DHT22;6216;51.146;7.008;2022-12-07T03:14:31;19.80;99.90
12307;DHT22;6216;51.146;7.008;2022-12-07T03:17:07;19.80;99.90
12307;DHT22;6216;51.146;7.008;2022-12-07T03:19:38;19.80;99.90
12307;DHT22;6216;51.146;7.008;2022-12-07T03:22:10;19.80;99.90
12307;DHT22;6216;51.146;7.008;2022-12-07T03:24:42;19.80;99.90
12307;DHT22;6216;51.146;7.008;2022-12-07T03:27:14;19.80;99.90
12307;DHT22;6216;51.146;7.008;2022-12-07T03:29:49;19.80;99.90
12307;DHT22;6216;51.146;7.008;2022-12-07T03:32:25;19.80;99.90
12307;DHT22;6216;51.146;7.008;2022-12-07T03:34:58;19.70;99.90
12307;DHT22;6216;51.146;7.008;2022-12-07T03:37:32;19.70;99.90
12307;DHT22;6216;51.146;7.008;2022-12-07T03:40:08;19.70;99.90
12307;DHT22;6216;51.146;7.008;2022-12-07T03:42:39;19.70;99.90
12307;DHT22;6216;51.146;7.008;2022-12-07T03:45:08;19.70;99.90
12307;DHT22;6216;51.146;7.008;2022-12-07T03:47:45;19.70;99.90
12307;DHT22;6216;51.146;7.008;2022-12-07T03:50:18;19.70;99.90
12307;DHT22;6216;51.146;7.008;2022-12-07T03:52:54;19.70;99.90
12307;DHT22;6216;51.146;7.008;2022-12-07T03:55:26;19.70;99.90
12307;DHT22;6216;51.146;7.008;2022-12-07T03:57:58;19.70;99.90
12307;DHT22;6216;51.146;7.008;2022-12-07T04:00:27;19.60;99.90
12307;DHT22;6216;51.146;7.008;2022-12-07T04:02:57;19.60;99.90
12307;DHT22;6216;51.146;7.008;2022-12-07T04:05:25;19.60;99.90
12307;DHT22;6216;51.146;7.008;2022-12-07T04:07:53;19.60;99.90
12307;DHT22;6216;51.146;7.008;2022-12-07T04:10:21;19.60;99.90
12307;DHT22;6216;51.146;7.008;2022-12-07T04:12:49;19.60;99.90
12307;DHT22;6216;51.146;7.008;2022-12-07T04:15:17;19.60;99.90
12307;DHT22;6216;51.146;7.008;2022-12-07T04:17:45;19.60;99.90
12307;DHT22;6216;51.146;7.008;2022-12-07T04:20:14;19.60;99.90
12307;DHT22;6216;51.146;7.008;2022-12-07T04:22:43;19.60;99.90
12307;DHT22;6216;51.146;7.008;2022-12-07T04:25:10;19.60;99.90
12307;DHT22;6216;51.146;7.008;2022-12-07T04:27:38;19.60;99.90
12307;DHT22;6216;51.146;7.008;2022-12-07T04:30:07;19.60;99.90
12307;DHT22;6216;51.146;7.008;2022-12-07T04:32:35;19.60;99.90
12307;DHT22;6216;51.146;7.008;2022-12-07T04:35:04;19.60;99.90
12307;DHT22;6216;51.146;7.008;2022-12-07T04:37:34;19.60;99.90
12307;DHT22;6216;51.146;7.008;2022-12-07T04:40:02;19.60;99.90
12307;DHT22;6216;51.146;7.008;2022-12-07T04:42:30;19.60;99.90
12307;DHT22;6216;51.146;7.008;2022-12-07T04:44:58;19.60;99.90
12307;DHT22;6216;51.146;7.008;2022-12-07T04:47:26;19.60;99.90
12307;DHT22;6216;51.146;7.008;2022-12-07T04:49:54;19.60;99.90
12307;DHT22;6216;51.146;7.008;2022-12-07T04:52:21;19.60;99.90
12307;DHT22;6216;51.146;7.008;2022-12-07T04:54:51;19.60;99.90
12307;DHT22;6216;51.146;7.008;2022-12-07T04:57:18;19.70;99.90
12307;DHT22;6216;51.146;7.008;2022-12-07T04:59:46;19.70;99.90
12307;DHT22;6216;51.146;7.008;2022-12-07T05:02:14;19.70;99.90
12307;DHT22;6216;51.146;7.008;2022-12-07T05:04:42;19.70;99.90
12307;DHT22;6216;51.146;7.008;2022-12-07T05:07:10;19.70;99.90
12307;DHT22;6216;51.146;7.008;2022-12-07T05:09:38;19.70;99.90
12307;DHT22;6216;51.146;7.008;2022-12-07T05:12:07;19.70;99.90
12307;DHT22;6216;51.146;7.008;2022-12-07T05:14:35;19.70;99.90
12307;DHT22;6216;51.146;7.008;2022-12-07T05:17:03;19.70;99.90
12307;DHT22;6216;51.146;7.008;2022-12-07T05:19:31;19.70;99.90
12307;DHT22;6216;51.146;7.008;2022-12-07T05:21:59;19.70;99.90
12307;DHT22;6216;51.146;7.008;2022-12-07T05:24:27;19.70;99.90
12307;DHT22;6216;51.146;7.008;2022-12-07T05:26:55;19.70;99.90
12307;DHT22;6216;51.146;7.008;2022-12-07T05:29:24;19.70;99.90
12307;DHT22;6216;51.146;7.008;2022-12-07T05:31:52;19.60;99.90
12307;DHT22;6216;51.146;7.008;2022-12-07T05:34:20;19.60;99.90
12307;DHT22;6216;51.146;7.008;2022-12-07T05:36:48;19.60;99.90
12307;DHT22;6216;51.146;7.008;2022-12-07T05:39:16;19.60;99.90
12307;DHT22;6216;51.146;7.008;2022-12-07T05:41:44;19.70;99.90
12307;DHT22;6216;51.146;7.008;2022-12-07T05:44:31;19.70;99.90
12307;DHT22;6216;51.146;7.008;2022-12-07T05:46:59;19.80;99.90
12307;DHT22;6216;51.146;7.008;2022-12-07T05:49:27;19.70;99.90
12307;DHT22;6216;51.146;7.008;2022-12-07T05:51:54;19.80;99.90
12307;DHT22;6216;51.146;7.008;2022-12-07T05:54:22;19.80;99.90
12307;DHT22;6216;51.146;7.008;2022-12-07T05:56:50;19.80;99.90
12307;DHT22;6216;51.146;7.008;2022-12-07T05:59:18;19.90;99.90
12307;DHT22;6216;51.146;7.008;2022-12-07T06:01:54;19.90;99.90
12307;DHT22;6216;51.146;7.008;2022-12-07T06:04:24;19.90;99.90
12307;DHT22;6216;51.146;7.008;2022-12-07T06:06:52;20.00;99.90
12307;DHT22;6216;51.146;7.008;2022-12-07T06:09:21;19.90;99.90
12307;DHT22;6216;51.146;7.008;2022-12-07T06:11:49;19.90;99.90
12307;DHT22;6216;51.146;7.008;2022-12-07T06:14:35;19.90;99.90
12307;DHT22;6216;51.146;7.008;2022-12-07T06:17:05;20.00;99.90
12307;DHT22;6216;51.146;7.008;2022-12-07T06:19:33;20.00;99.90
12307;DHT22;6216;51.146;7.008;2022-12-07T06:22:02;20.00;99.90
12307;DHT22;6216;51.146;7.008;2022-12-07T06:24:31;20.00;99.90
12307;DHT22;6216;51.146;7.008;2022-12-07T06:26:59;20.00;99.90
12307;DHT22;6216;51.146;7.008;2022-12-07T06:29:27;20.00;99.90
12307;DHT22;6216;51.146;7.008;2022-12-07T06:31:55;20.00;99.90
12307;DHT22;6216;51.146;7.008;2022-12-07T06:34:25;20.00;99.90
12307;DHT22;6216;51.146;7.008;2022-12-07T06:36:53;20.00;99.90
12307;DHT22;6216;51.146;7.008;2022-12-07T06:39:23;20.00;99.90
12307;DHT22;6216;51.146;7.008;2022-12-07T06:41:51;20.00;99.90
12307;DHT22;6216;51.146;7.008;2022-12-07T06:44:21;19.90;99.90
12307;DHT22;6216;51.146;7.008;2022-12-07T06:46:49;20.00;99.90
12307;DHT22;6216;51.146;7.008;2022-12-07T06:49:17;19.90;99.90
12307;DHT22;6216;51.146;7.008;2022-12-07T06:51:46;19.90;99.90
12307;DHT22;6216;51.146;7.008;2022-12-07T06:54:15;19.90;99.90
12307;DHT22;6216;51.146;7.008;2022-12-07T06:56:43;19.90;99.90
12307;DHT22;6216;51.146;7.008;2022-12-07T06:59:11;19.90;99.90
12307;DHT22;6216;51.146;7.008;2022-12-07T07:01:39;19.90;99.90
12307;DHT22;6216;51.146;7.008;2022-12-07T07:04:07;19.90;99.90
12307;DHT22;6216;51.146;7.008;2022-12-07T07:06:35;19.90;99.90
12307;DHT22;6216;51.146;7.008;2022-12-07T07:09:04;19.90;99.90
12307;DHT22;6216;51.146;7.008;2022-12-07T07:11:32;19.90;99.90
12307;DHT22;6216;51.146;7.008;2022-12-07T07:14:00;19.90;99.90
12307;DHT22;6216;51.146;7.008;2022-12-07T07:16:29;19.90;99.90
12307;DHT22;6216;51.146;7.008;2022-12-07T07:18:58;19.90;99.90
12307;DHT22;6216;51.146;7.008;2022-12-07T07:21:25;20.00;99.90
12307;DHT22;6216;51.146;7.008;2022-12-07T07:23:53;19.90;99.90
12307;DHT22;6216;51.146;7.008;2022-12-07T07:26:22;20.00;99.90
12307;DHT22;6216;51.146;7.008;2022-12-07T07:28:50;20.00;99.90
12307;DHT22;6216;51.146;7.008;2022-12-07T07:31:18;20.00;99.90
12307;DHT22;6216;51.146;7.008;2022-12-07T07:33:47;20.00;99.90
12307;DHT22;6216;51.146;7.008;2022-12-07T07:36:15;19.90;99.90
12307;DHT22;6216;51.146;7.008;2022-12-07T07:38:43;19.90;99.90
12307;DHT22;6216;51.146;7.008;2022-12-07T07:41:10;19.90;99.90
12307;DHT22;6216;51.146;7.008;2022-12-07T07:43:40;19.90;99.90
12307;DHT22;6216;51.146;7.008;2022-12-07T07:46:07;19.90;99.90
12307;DHT22;6216;51.146;7.008;2022-12-07T07:48:35;19.90;99.90
12307;DHT22;6216;51.146;7.008;2022-12-07T07:51:05;20.00;99.90
12307;DHT22;6216;51.146;7.008;2022-12-07T07:53:33;20.00;99.90
12307;DHT22;6216;51.146;7.008;2022-12-07T07:56:01;20.00;99.90
12307;DHT22;6216;51.146;7.008;2022-12-07T07:58:29;20.00;99.90
12307;DHT22;6216;51.146;7.008;2022-12-07T08:01:03;20.00;99.90
12307;DHT22;6216;51.146;7.008;2022-12-07T08:03:32;20.00;99.90
12307;DHT22;6216;51.146;7.008;2022-12-07T08:06:01;19.90;99.90
12307;DHT22;6216;51.146;7.008;2022-12-07T08:08:29;19.80;99.90
12307;DHT22;6216;51.146;7.008;2022-12-07T08:10:57;19.50;99.90
12307;DHT22;6216;51.146;7.008;2022-12-07T08:13:27;19.40;99.90
12307;DHT22;6216;51.146;7.008;2022-12-07T08:15:59;19.20;99.90
12307;DHT22;6216;51.146;7.008;2022-12-07T08:18:30;19.10;99.90
12307;DHT22;6216;51.146;7.008;2022-12-07T08:20:59;19.00;99.90
12307;DHT22;6216;51.146;7.008;2022-12-07T08:23:28;19.00;99.90
12307;DHT22;6216;51.146;7.008;2022-12-07T08:26:06;18.90;99.90
12307;DHT22;6216;51.146;7.008;2022-12-07T08:28:35;19.00;99.90
12307;DHT22;6216;51.146;7.008;2022-12-07T08:31:06;19.10;99.90
12307;DHT22;6216;51.146;7.008;2022-12-07T08:33:35;19.20;99.90
12307;DHT22;6216;51.146;7.008;2022-12-07T08:36:04;19.30;99.90
12307;DHT22;6216;51.146;7.008;2022-12-07T08:38:34;19.40;99.90
12307;DHT22;6216;51.146;7.008;2022-12-07T08:41:02;19.50;99.90
12307;DHT22;6216;51.146;7.008;2022-12-07T08:43:30;19.60;99.90
12307;DHT22;6216;51.146;7.008;2022-12-07T08:46:08;19.60;99.90
12307;DHT22;6216;51.146;7.008;2022-12-07T08:48:43;19.70;99.90
12307;DHT22;6216;51.146;7.008;2022-12-07T08:51:12;19.80;99.90
12307;DHT22;6216;51.146;7.008;2022-12-07T08:53:40;19.80;99.90
12307;DHT22;6216;51.146;7.008;2022-12-07T08:56:09;19.90;99.90
12307;DHT22;6216;51.146;7.008;2022-12-07T08:58:38;20.00;99.90
12307;DHT22;6216;51.146;7.008;2022-12-07T09:01:07;20.00;99.90
12307;DHT22;6216;51.146;7.008;2022-12-07T09:03:36;20.00;99.90
12307;DHT22;6216;51.146;7.008;2022-12-07T09:06:04;20.10;99.90
12307;DHT22;6216;51.146;7.008;2022-12-07T09:08:36;20.10;99.90
12307;DHT22;6216;51.146;7.008;2022-12-07T09:11:04;20.20;99.90
12307;DHT22;6216;51.146;7.008;2022-12-07T09:13:32;20.30;99.90
12307;DHT22;6216;51.146;7.008;2022-12-07T09:16:00;20.30;99.90
12307;DHT22;6216;51.146;7.008;2022-12-07T09:18:29;20.30;99.90
12307;DHT22;6216;51.146;7.008;2022-12-07T09:20:58;20.30;99.90
12307;DHT22;6216;51.146;7.008;2022-12-07T09:23:25;20.40;99.90
12307;DHT22;6216;51.146;7.008;2022-12-07T09:25:53;20.40;99.90
12307;DHT22;6216;51.146;7.008;2022-12-07T09:28:21;20.40;99.90
12307;DHT22;6216;51.146;7.008;2022-12-07T09:30:49;20.40;99.90
12307;DHT22;6216;51.146;7.008;2022-12-07T09:33:38;20.40;99.90
12307;DHT22;6216;51.146;7.008;2022-12-07T09:36:08;20.30;99.90
12307;DHT22;6216;51.146;7.008;2022-12-07T09:38:36;20.30;99.90
12307;DHT22;6216;51.146;7.008;2022-12-07T09:41:05;20.40;99.90
12307;DHT22;6216;51.146;7.008;2022-12-07T09:43:35;20.40;99.90
12307;DHT22;6216;51.146;7.008;2022-12-07T09:46:04;20.40;99.90
12307;DHT22;6216;51.146;7.008;2022-12-07T09:48:33;20.50;99.90
12307;DHT22;6216;51.146;7.008;2022-12-07T09:51:14;20.50;99.90
12307;DHT22;6216;51.146;7.008;2022-12-07T09:53:50;20.50;99.90
12307;DHT22;6216;51.146;7.008;2022-12-07T09:56:19;20.40;99.90
12307;DHT22;6216;51.146;7.008;2022-12-07T09:58:49;20.40;99.90
12307;DHT22;6216;51.146;7.008;2022-12-07T10:01:20;20.40;99.90
12307;DHT22;6216;51.146;7.008;2022-12-07T10:03:50;20.30;99.90
12307;DHT22;6216;51.146;7.008;2022-12-07T10:06:20;20.30;99.90
12307;DHT22;6216;51.146;7.008;2022-12-07T10:08:48;20.30;99.90
12307;DHT22;6216;51.146;7.008;2022-12-07T10:11:16;20.30;99.90
12307;DHT22;6216;51.146;7.008;2022-12-07T10:13:46;20.30;99.90
12307;DHT22;6216;51.146;7.008;2022-12-07T10:16:35;20.40;99.90
12307;DHT22;6216;51.146;7.008;2022-12-07T10:19:19;20.40;99.90
12307;DHT22;6216;51.146;7.008;2022-12-07T10:22:04;20.40;99.90
12307;DHT22;6216;51.146;7.008;2022-12-07T10:24:32;20.30;99.90
12307;DHT22;6216;51.146;7.008;2022-12-07T10:27:00;20.30;99.90
12307;DHT22;6216;51.146;7.008;2022-12-07T10:29:30;20.20;99.90
12307;DHT22;6216;51.146;7.008;2022-12-07T10:32:00;20.20;99.90
12307;DHT22;6216;51.146;7.008;2022-12-07T10:34:32;20.20;99.90
12307;DHT22;6216;51.146;7.008;2022-12-07T10:37:15;20.20;99.90
12307;DHT22;6216;51.146;7.008;2022-12-07T10:39:45;20.20;99.90
12307;DHT22;6216;51.146;7.008;2022-12-07T10:42:18;20.20;99.90
12307;DHT22;6216;51.146;7.008;2022-12-07T10:44:47;20.10;99.90
12307;DHT22;6216;51.146;7.008;2022-12-07T10:47:32;20.10;99.90
12307;DHT22;6216;51.146;7.008;2022-12-07T10:50:17;20.10;99.90
12307;DHT22;6216;51.146;7.008;2022-12-07T10:53:10;20.10;99.90
12307;DHT22;6216;51.146;7.008;2022-12-07T10:56:01;20.10;99.90
12307;DHT22;6216;51.146;7.008;2022-12-07T10:58:49;20.10;99.90
12307;DHT22;6216;51.146;7.008;2022-12-07T11:01:24;20.10;99.90
12307;DHT22;6216;51.146;7.008;2022-12-07T11:04:08;20.20;99.90
12307;DHT22;6216;51.146;7.008;2022-12-07T11:06:43;20.20;99.90
12307;DHT22;6216;51.146;7.008;2022-12-07T11:09:36;20.20;99.90
12307;DHT22;6216;51.146;7.008;2022-12-07T11:12:37;20.20;99.90
12307;DHT22;6216;51.146;7.008;2022-12-07T11:15:16;20.20;99.90
12307;DHT22;6216;51.146;7.008;2022-12-07T11:17:51;20.30;99.90
12307;DHT22;6216;51.146;7.008;2022-12-07T11:20:34;20.30;99.90
12307;DHT22;6216;51.146;7.008;2022-12-07T11:23:17;20.30;99.90
12307;DHT22;6216;51.146;7.008;2022-12-07T11:25:53;20.30;99.90
12307;DHT22;6216;51.146;7.008;2022-12-07T11:28:33;20.20;99.90
12307;DHT22;6216;51.146;7.008;2022-12-07T11:31:11;20.20;99.90
12307;DHT22;6216;51.146;7.008;2022-12-07T11:33:44;20.20;99.90
12307;DHT22;6216;51.146;7.008;2022-12-07T11:36:31;20.40;99.90
12307;DHT22;6216;51.146;7.008;2022-12-07T11:39:04;20.40;99.90
12307;DHT22;6216;51.146;7.008;2022-12-07T11:41:35;20.50;99.90
12307;DHT22;6216;51.146;7.008;2022-12-07T11:44:06;20.50;99.90
12307;DHT22;6216;51.146;7.008;2022-12-07T11:46:47;20.50;99.90
12307;DHT22;6216;51.146;7.008;2022-12-07T11:49:21;20.60;99.90
12307;DHT22;6216;51.146;7.008;2022-12-07T11:51:53;20.70;99.90
12307;DHT22;6216;51.146;7.008;2022-12-07T11:54:28;20.70;99.90
12307;DHT22;6216;51.146;7.008;2022-12-07T11:57:04;20.80;99.90
12307;DHT22;6216;51.146;7.008;2022-12-07T11:59:39;21.00;99.90
12307;DHT22;6216;51.146;7.008;2022-12-07T12:02:13;21.20;99.90
12307;DHT22;6216;51.146;7.008;2022-12-07T12:04:50;21.30;99.90
12307;DHT22;6216;51.146;7.008;2022-12-07T12:07:23;21.50;99.90
12307;DHT22;6216;51.146;7.008;2022-12-07T12:10:19;21.50;99.90
12307;DHT22;6216;51.146;7.008;2022-12-07T12:13:03;21.50;99.90
12307;DHT22;6216;51.146;7.008;2022-12-07T12:16:05;21.50;99.90
12307;DHT22;6216;51.146;7.008;2022-12-07T12:18:46;21.50;99.90
12307;DHT22;6216;51.146;7.008;2022-12-07T12:21:20;21.40;99.90
12307;DHT22;6216;51.146;7.008;2022-12-07T12:23:54;21.40;99.90
12307;DHT22;6216;51.146;7.008;2022-12-07T12:26:26;21.40;99.90
12307;DHT22;6216;51.146;7.008;2022-12-07T12:28:57;21.30;99.90
12307;DHT22;6216;51.146;7.008;2022-12-07T12:31:33;21.30;99.90
12307;DHT22;6216;51.146;7.008;2022-12-07T12:34:04;21.20;99.90
12307;DHT22;6216;51.146;7.008;2022-12-07T12:36:52;21.10;99.90
12307;DHT22;6216;51.146;7.008;2022-12-07T12:39:22;21.10;99.90
12307;DHT22;6216;51.146;7.008;2022-12-07T12:44:42;20.90;99.90
12307;DHT22;6216;51.146;7.008;2022-12-07T12:47:51;20.80;99.90
12307;DHT22;6216;51.146;7.008;2022-12-07T12:50:22;20.80;99.90
12307;DHT22;6216;51.146;7.008;2022-12-07T12:56:28;20.70;99.90
12307;DHT22;6216;51.146;7.008;2022-12-07T12:59:22;20.60;99.90
12307;DHT22;6216;51.146;7.008;2022-12-07T13:01:54;20.60;99.90
12307;DHT22;6216;51.146;7.008;2022-12-07T13:10:40;20.50;99.90
12307;DHT22;6216;51.146;7.008;2022-12-07T13:13:32;20.50;99.90
12307;DHT22;6216;51.146;7.008;2022-12-07T13:22:43;20.50;99.90
12307;DHT22;6216;51.146;7.008;2022-12-07T13:25:12;20.50;99.90
12307;DHT22;6216;51.146;7.008;2022-12-07T13:27:50;20.50;99.90
12307;DHT22;6216;51.146;7.008;2022-12-07T13:30:20;20.50;99.90
12307;DHT22;6216;51.146;7.008;2022-12-07T13:32:52;20.60;99.90
12307;DHT22;6216;51.146;7.008;2022-12-07T13:35:34;20.50;99.90
12307;DHT22;6216;51.146;7.008;2022-12-07T13:38:22;20.60;99.90
12307;DHT22;6216;51.146;7.008;2022-12-07T13:41:10;20.50;99.90
12307;DHT22;6216;51.146;7.008;2022-12-07T13:43:48;20.50;99.90
12307;DHT22;6216;51.146;7.008;2022-12-07T13:46:18;20.50;99.90
12307;DHT22;6216;51.146;7.008;2022-12-07T13:48:49;20.50;99.90
12307;DHT22;6216;51.146;7.008;2022-12-07T13:51:20;20.50;99.90
12307;DHT22;6216;51.146;7.008;2022-12-07T13:53:52;20.60;99.90
12307;DHT22;6216;51.146;7.008;2022-12-07T13:56:22;20.50;99.90
12307;DHT22;6216;51.146;7.008;2022-12-07T13:58:53;20.50;99.90
12307;DHT22;6216;51.146;7.008;2022-12-07T14:01:22;20.50;99.90
12307;DHT22;6216;51.146;7.008;2022-12-07T14:03:50;20.50;99.90
12307;DHT22;6216;51.146;7.008;2022-12-07T14:06:24;20.50;99.90
12307;DHT22;6216;51.146;7.008;2022-12-07T14:09:20;20.50;99.90
12307;DHT22;6216;51.146;7.008;2022-12-07T14:11:52;20.50;99.90
12307;DHT22;6216;51.146;7.008;2022-12-07T14:14:22;20.50;99.90
12307;DHT22;6216;51.146;7.008;2022-12-07T14:17:11;20.50;99.90
12307;DHT22;6216;51.146;7.008;2022-12-07T14:19:46;20.50;99.90
12307;DHT22;6216;51.146;7.008;2022-12-07T14:22:30;20.40;99.90
12307;DHT22;6216;51.146;7.008;2022-12-07T14:25:13;20.50;99.90
12307;DHT22;6216;51.146;7.008;2022-12-07T14:27:49;20.50;99.90
12307;DHT22;6216;51.146;7.008;2022-12-07T14:30:17;20.50;99.90
12307;DHT22;6216;51.146;7.008;2022-12-07T14:32:47;20.50;99.90
12307;DHT22;6216;51.146;7.008;2022-12-07T14:35:18;20.50;99.90
12307;DHT22;6216;51.146;7.008;2022-12-07T14:37:47;20.40;99.90
12307;DHT22;6216;51.146;7.008;2022-12-07T14:40:19;20.40;99.90
12307;DHT22;6216;51.146;7.008;2022-12-07T14:42:50;20.40;99.90
12307;DHT22;6216;51.146;7.008;2022-12-07T14:45:28;20.40;99.90
12307;DHT22;6216;51.146;7.008;2022-12-07T14:47:56;20.40;99.90
12307;DHT22;6216;51.146;7.008;2022-12-07T14:50:47;20.40;99.90
12307;DHT22;6216;51.146;7.008;2022-12-07T14:53:39;20.30;99.90
12307;DHT22;6216;51.146;7.008;2022-12-07T14:56:09;20.20;99.90
12307;DHT22;6216;51.146;7.008;2022-12-07T14:58:37;20.10;99.90
12307;DHT22;6216;51.146;7.008;2022-12-07T15:01:05;20.10;99.90
12307;DHT22;6216;51.146;7.008;2022-12-07T15:03:33;20.10;99.90
